createdAt,value
2023-02-16T00:00:25.350Z,24.35
2023-02-16T00:02:34.384Z,21.65
2023-02-16T00:04:13.592Z,14.77
2023-02-16T00:06:00.417Z,16.15
2023-02-16T00:07:25.221Z,18.15
2023-02-16T00:08:51.886Z,18.35
2023-02-16T00:10:17.018Z,15.95
2023-02-16T00:12:13.447Z,14.60
2023-02-16T00:13:49.325Z,19.80
2023-02-16T00:15:21.838Z,20.13
2023-02-16T00:16:44.699Z,24.30
2023-02-16T00:18:23.878Z,17.88
2023-02-16T00:19:46.917Z,22.05
2023-02-16T00:22:54.860Z,24.00
2023-02-16T00:24:16.858Z,16.60
2023-02-16T00:25:38.675Z,15.23
2023-02-16T00:27:13.416Z,17.20
2023-02-16T00:28:34.796Z,17.55
2023-02-16T00:29:58.919Z,18.85
2023-02-16T00:31:27.495Z,17.52
2023-02-16T00:32:50.318Z,17.10
2023-02-16T00:35:39.479Z,21.83
2023-02-16T01:46:30.767Z,10.40
2023-02-16T02:09:09.544Z,14.00
2023-02-16T02:12:05.638Z,13.27
2023-02-16T02:28:54.995Z,13.60
2023-02-16T02:33:27.751Z,13.40
2023-02-16T02:38:49.610Z,13.52
2023-02-16T02:43:19.256Z,11.07
2023-02-16T02:45:03.582Z,12.20
2023-02-16T02:52:50.828Z,11.20
2023-02-16T02:55:02.574Z,12.63
2023-02-16T03:29:46.818Z,10.73
2023-02-16T03:39:59.420Z,9.95
2023-02-16T03:45:06.390Z,9.32
2023-02-16T03:59:19.281Z,10.30
2023-02-16T04:01:11.632Z,9.88
2023-02-16T04:03:05.358Z,10.68
2023-02-16T04:05:04.597Z,10.73
2023-02-16T04:06:57.500Z,8.90
2023-02-16T04:08:33.997Z,9.93
2023-02-16T04:10:10.338Z,9.57
2023-02-16T04:22:09.113Z,12.02
2023-02-16T04:23:40.793Z,9.85
2023-02-16T04:25:06.484Z,9.00
2023-02-16T04:29:03.240Z,8.82
2023-02-16T04:33:11.415Z,10.13
2023-02-16T04:34:47.488Z,9.63
2023-02-16T04:36:38.096Z,11.48
2023-02-16T04:42:22.593Z,10.27
2023-02-16T04:44:49.905Z,8.95
2023-02-16T04:47:20.043Z,9.32
2023-02-16T04:49:13.174Z,9.45
2023-02-16T04:51:54.278Z,10.15
2023-02-16T04:54:01.649Z,9.85
2023-02-16T05:00:18.859Z,10.25
2023-02-16T05:05:29.077Z,9.65
2023-02-16T05:07:11.433Z,9.50
2023-02-16T05:09:09.652Z,10.38
2023-02-16T05:11:25.650Z,8.82
2023-02-16T05:14:05.664Z,8.43
2023-02-16T05:18:09.387Z,9.88
2023-02-16T05:22:04.805Z,9.80
2023-02-16T05:26:33.922Z,9.95
2023-02-16T05:28:03.472Z,8.50
2023-02-16T05:29:59.005Z,8.00
2023-02-16T05:31:36.416Z,10.77
2023-02-16T05:34:52.852Z,7.70
2023-02-16T05:36:20.465Z,8.07
2023-02-16T05:40:01.171Z,8.60
2023-02-16T05:41:55.350Z,12.55
2023-02-16T05:43:24.411Z,8.35
2023-02-16T05:44:59.863Z,8.93
2023-02-16T05:49:43.923Z,8.50
2023-02-16T05:51:20.991Z,10.05
2023-02-16T05:53:16.090Z,10.48
2023-02-16T05:54:55.317Z,9.88
2023-02-16T05:56:46.936Z,10.00
2023-02-16T05:59:18.405Z,9.43
2023-02-16T06:01:03.260Z,8.37
2023-02-16T06:02:38.037Z,8.30
2023-02-16T06:04:23.955Z,8.18
2023-02-16T06:10:19.580Z,9.55
2023-02-16T06:11:36.376Z,8.95
2023-02-16T06:13:14.692Z,10.73
2023-02-16T06:14:53.330Z,8.40
2023-02-16T06:16:27.992Z,9.02
2023-02-16T06:17:56.638Z,7.68
2023-02-16T06:19:20.408Z,8.48
2023-02-16T06:20:48.969Z,9.10
2023-02-16T06:22:32.681Z,9.23
2023-02-16T06:24:04.111Z,7.72
2023-02-16T06:26:10.473Z,7.70
2023-02-16T06:36:17.545Z,7.60
2023-02-16T06:38:07.831Z,8.48
2023-02-16T06:40:45.929Z,7.32
2023-02-16T06:43:07.691Z,7.60
2023-02-16T06:44:56.373Z,6.70
2023-02-16T06:49:22.140Z,9.18
2023-02-16T06:51:42.473Z,6.60
2023-02-16T06:53:43.504Z,6.63
2023-02-16T06:56:32.685Z,7.43
2023-02-16T06:58:22.590Z,7.80
2023-02-16T07:00:08.123Z,7.55
2023-02-16T07:13:12.064Z,6.32
2023-02-16T07:19:44.600Z,6.72
2023-02-16T07:21:46.944Z,7.63
2023-02-16T07:24:05.492Z,6.63
2023-02-16T07:27:17.426Z,6.18
2023-02-16T07:28:26.137Z,5.93
2023-02-16T07:30:13.803Z,7.15
2023-02-16T07:31:59.962Z,6.93
2023-02-16T07:33:25.237Z,4.80
2023-02-16T07:37:03.743Z,10.18
2023-02-16T07:38:46.913Z,10.23
2023-02-16T07:40:12.157Z,10.27
2023-02-16T07:43:20.161Z,10.63
2023-02-16T07:44:49.819Z,7.15
2023-02-16T07:46:12.689Z,9.10
2023-02-16T07:47:37.695Z,12.70
2023-02-16T07:49:00.534Z,11.20
2023-02-16T07:50:26.752Z,13.65
2023-02-16T07:51:51.960Z,12.60
2023-02-16T07:59:02.826Z,14.65
2023-02-16T08:01:38.277Z,15.98
2023-02-16T08:09:51.745Z,22.85
2023-02-16T08:11:21.818Z,20.17
2023-02-16T08:12:46.647Z,24.80
2023-02-16T09:37:12.353Z,24.00
2023-02-16T09:38:35.338Z,29.83
2023-02-16T09:40:12.105Z,24.95
2023-02-16T09:41:33.607Z,23.65
2023-02-16T09:43:20.340Z,23.98
2023-02-16T09:44:56.896Z,24.92
2023-02-16T09:46:22.192Z,22.10
2023-02-16T09:47:51.383Z,24.45
2023-02-16T09:49:30.450Z,22.63
2023-02-16T09:50:57.178Z,23.55
2023-02-16T09:52:44.905Z,23.40
2023-02-16T09:54:30.988Z,24.58
2023-02-16T09:56:03.391Z,21.48
2023-02-16T09:57:47.114Z,25.10
2023-02-16T09:59:27.923Z,23.08
2023-02-16T10:00:54.547Z,22.23
2023-02-16T10:03:00.755Z,22.20
2023-02-16T10:04:28.120Z,23.65
2023-02-16T10:06:28.547Z,23.88
2023-02-16T10:08:08.248Z,26.02
2023-02-16T10:09:30.312Z,24.25
2023-02-16T10:11:04.462Z,23.98
2023-02-16T10:12:28.861Z,23.13
2023-02-16T10:13:54.237Z,25.15
2023-02-16T10:15:19.969Z,25.10
2023-02-16T10:16:48.221Z,25.33
2023-02-16T10:18:25.112Z,26.45
2023-02-16T10:19:46.661Z,22.75
2023-02-16T10:21:15.398Z,24.05
2023-02-16T10:22:53.267Z,25.30
2023-02-16T10:24:15.290Z,20.63
2023-02-16T10:27:15.504Z,24.90
2023-02-16T10:28:41.077Z,27.67
2023-02-16T10:30:03.353Z,24.35
2023-02-16T10:32:01.886Z,20.75
2023-02-16T10:33:43.298Z,28.60
2023-02-16T10:35:20.681Z,19.90
2023-02-16T10:36:59.254Z,26.13
2023-02-16T10:38:36.275Z,22.55
2023-02-16T10:40:13.104Z,20.95
2023-02-16T10:41:42.185Z,20.05
2023-02-16T10:43:44.598Z,22.75
2023-02-16T10:45:37.023Z,22.45
2023-02-16T10:47:04.849Z,19.08
2023-02-16T10:48:27.426Z,22.75
2023-02-16T10:49:49.585Z,19.50
2023-02-16T10:52:00.061Z,20.63
2023-02-16T10:53:45.553Z,22.10
2023-02-16T10:55:07.977Z,21.83
2023-02-16T10:56:44.172Z,21.27
2023-02-16T10:58:06.081Z,22.98
2023-02-16T10:59:42.132Z,22.98
2023-02-16T11:01:40.694Z,20.15
2023-02-16T11:03:04.619Z,21.05
2023-02-16T11:04:41.769Z,18.67
2023-02-16T11:06:17.783Z,21.23
2023-02-16T11:07:39.999Z,21.90
2023-02-16T11:09:04.333Z,18.50
2023-02-16T11:10:43.321Z,20.73
2023-02-16T11:12:31.113Z,18.90
2023-02-16T11:14:08.677Z,21.50
2023-02-16T11:16:06.648Z,21.65
2023-02-16T11:18:12.756Z,19.95
2023-02-16T11:21:20.280Z,18.50
2023-02-16T11:22:48.619Z,20.90
2023-02-16T11:25:03.858Z,21.70
2023-02-16T11:27:21.723Z,24.35
2023-02-16T11:29:22.974Z,19.77
2023-02-16T11:30:52.351Z,17.42
2023-02-16T11:32:46.077Z,23.33
2023-02-16T11:34:44.225Z,19.13
2023-02-16T11:36:23.071Z,23.65
2023-02-16T11:37:49.948Z,23.27
2023-02-16T11:39:19.481Z,23.75
2023-02-16T11:40:41.755Z,23.65
2023-02-16T11:42:35.300Z,23.48
2023-02-16T11:43:56.956Z,22.80
2023-02-16T11:45:38.692Z,19.60
2023-02-16T11:47:25.300Z,21.10
2023-02-16T11:49:15.942Z,24.73
2023-02-16T11:50:39.329Z,22.88
2023-02-16T11:52:01.037Z,21.77
2023-02-16T11:53:28.691Z,23.92
2023-02-16T11:55:00.953Z,24.67
2023-02-16T11:56:29.706Z,22.38
2023-02-16T11:57:57.293Z,21.70
2023-02-16T11:59:21.076Z,21.92
2023-02-16T12:01:27.386Z,20.65
2023-02-16T12:03:00.595Z,21.50
2023-02-16T12:06:56.677Z,22.65
2023-02-16T12:08:36.405Z,20.98
2023-02-16T12:10:10.809Z,19.08
2023-02-16T12:11:47.011Z,22.52
2023-02-16T12:13:34.178Z,22.98
2023-02-16T12:15:05.834Z,23.98
2023-02-16T12:16:58.219Z,20.40
2023-02-16T12:18:36.508Z,20.73
2023-02-16T12:22:16.698Z,21.10
2023-02-16T12:24:12.024Z,21.02
2023-02-16T12:25:47.866Z,19.30
2023-02-16T12:27:51.364Z,17.33
2023-02-16T12:29:35.162Z,21.58
2023-02-16T12:31:29.497Z,18.80
2023-02-16T12:33:08.451Z,20.10
2023-02-16T12:35:14.979Z,18.88
2023-02-16T12:38:42.165Z,19.92
2023-02-16T12:40:14.930Z,15.90
2023-02-16T12:42:04.607Z,19.52
2023-02-16T12:43:37.970Z,18.92
2023-02-16T12:45:09.165Z,19.48
2023-02-16T12:46:54.831Z,16.73
2023-02-16T12:48:45.431Z,20.02
2023-02-16T12:56:19.742Z,19.52
2023-02-16T13:04:10.923Z,23.35
2023-02-16T13:05:39.733Z,16.23
2023-02-16T13:07:19.870Z,19.42
2023-02-16T13:09:35.437Z,25.48
2023-02-16T13:11:24.364Z,22.77
2023-02-16T13:14:00.288Z,21.95
2023-02-16T13:15:49.936Z,27.23
2023-02-16T13:17:46.869Z,29.80
2023-02-16T13:19:14.560Z,19.67
2023-02-16T13:20:55.709Z,23.85
2023-02-16T13:22:27.571Z,20.92
2023-02-16T13:25:58.381Z,22.40
2023-02-16T13:27:36.301Z,16.58
2023-02-16T13:31:36.523Z,18.98
2023-02-16T13:36:10.981Z,25.02
2023-02-16T13:37:57.144Z,25.33
2023-02-16T13:39:32.794Z,40.88
2023-02-16T13:41:16.902Z,38.92
2023-02-16T13:43:01.447Z,42.75
2023-02-16T13:44:27.117Z,26.73
2023-02-16T13:45:55.122Z,36.70
2023-02-16T13:47:40.834Z,28.23
2023-02-16T13:49:43.535Z,40.25
2023-02-16T13:51:51.812Z,36.05
2023-02-16T13:53:21.864Z,36.90
2023-02-16T13:55:25.250Z,55.58
2023-02-16T13:57:56.213Z,54.65
2023-02-16T13:59:24.080Z,51.25
2023-02-16T14:00:56.006Z,49.78
2023-02-16T14:02:40.487Z,50.35
2023-02-16T14:06:40.783Z,36.65
2023-02-16T14:08:29.151Z,38.85
2023-02-16T14:09:58.710Z,34.72
2023-02-16T14:11:50.332Z,31.98
2023-02-16T14:13:35.529Z,32.95
2023-02-16T14:15:08.642Z,27.08
2023-02-16T14:19:14.696Z,40.97
2023-02-16T14:42:41.430Z,56.92
2023-02-16T15:19:53.363Z,109.37
2023-02-16T15:22:51.991Z,102.47
2023-02-16T15:24:34.480Z,101.88
2023-02-16T15:26:04.887Z,115.38
2023-02-16T15:27:26.716Z,93.22
2023-02-16T15:28:54.898Z,76.78
2023-02-16T15:30:24.977Z,90.05
2023-02-16T15:31:50.075Z,83.43
2023-02-16T15:33:36.575Z,72.05
2023-02-16T15:35:10.323Z,89.07
2023-02-16T15:36:38.580Z,87.60
2023-02-16T15:38:21.603Z,89.30
2023-02-16T15:39:58.023Z,78.68
2023-02-16T15:41:30.337Z,61.47
2023-02-16T15:42:56.026Z,77.43
2023-02-16T15:44:34.678Z,65.88
2023-02-16T15:46:15.925Z,74.80
2023-02-16T15:47:45.850Z,61.70
2023-02-16T15:51:16.844Z,60.03
2023-02-16T15:52:38.730Z,62.03
2023-02-16T15:54:23.701Z,52.08
2023-02-16T15:56:02.907Z,58.95
2023-02-16T15:57:26.960Z,55.53
2023-02-16T15:59:18.972Z,58.30
2023-02-16T16:01:00.332Z,61.13
2023-02-16T16:02:39.346Z,46.80
2023-02-16T16:04:19.717Z,46.30
2023-02-16T16:05:44.237Z,51.42
2023-02-16T16:07:46.760Z,56.60
2023-02-16T16:09:31.009Z,50.95
2023-02-16T16:10:53.073Z,48.13
2023-02-16T16:12:25.916Z,44.25
2023-02-16T16:15:20.841Z,51.50
2023-02-16T17:58:56.240Z,19.88
2023-02-16T18:00:23.102Z,23.80
2023-02-16T18:01:51.196Z,26.40
2023-02-16T18:03:14.398Z,18.23
2023-02-16T18:04:45.601Z,19.63
2023-02-16T18:06:09.916Z,19.30
2023-02-16T18:07:34.697Z,21.52
2023-02-16T18:08:57.147Z,21.77
2023-02-16T18:10:40.470Z,27.83
2023-02-16T18:12:13.766Z,22.35
2023-02-16T18:13:53.259Z,16.10
2023-02-16T18:15:19.990Z,18.17
2023-02-16T18:16:49.847Z,19.17
2023-02-16T18:18:18.286Z,17.55
2023-02-16T18:19:46.272Z,17.45
2023-02-16T18:21:21.340Z,16.05
2023-02-16T18:22:54.103Z,19.65
2023-02-16T18:24:17.323Z,15.23
2023-02-16T18:25:44.305Z,18.00
2023-02-16T18:27:10.983Z,22.38
2023-02-16T18:28:58.903Z,16.67
2023-02-16T18:30:20.562Z,18.55
2023-02-16T18:31:44.119Z,20.75
2023-02-16T18:33:09.289Z,19.92
2023-02-16T18:34:43.745Z,15.23
2023-02-16T18:36:08.613Z,28.30
2023-02-16T18:37:33.945Z,13.13
2023-02-16T18:38:58.801Z,13.73
2023-02-16T18:40:24.023Z,17.00
2023-02-16T18:41:55.307Z,24.13
2023-02-16T18:43:25.149Z,22.50
2023-02-16T18:44:53.024Z,23.88
2023-02-16T18:46:21.186Z,23.52
2023-02-16T18:48:04.361Z,24.20
2023-02-16T18:49:27.674Z,33.28
2023-02-16T18:50:50.761Z,25.20
2023-02-16T18:52:25.404Z,22.88
2023-02-16T18:53:47.193Z,29.35
2023-02-16T18:55:12.536Z,26.60
2023-02-16T18:56:35.511Z,24.35
2023-02-16T18:57:57.591Z,27.42
2023-02-16T18:59:19.378Z,29.25
2023-02-16T19:00:41.553Z,28.15
2023-02-16T19:02:06.288Z,29.02
2023-02-16T19:03:30.534Z,30.77
2023-02-16T19:04:52.491Z,31.58
2023-02-16T19:06:14.422Z,30.10
2023-02-16T19:07:38.008Z,35.88
2023-02-16T19:09:00.127Z,27.63
2023-02-16T19:10:22.043Z,46.17
2023-02-16T19:11:43.554Z,33.53
2023-02-16T19:13:07.196Z,30.77
2023-02-16T19:14:33.579Z,28.42
2023-02-16T19:15:54.828Z,32.88
2023-02-16T19:17:16.418Z,30.13
2023-02-16T19:18:38.214Z,38.67
2023-02-16T19:19:59.798Z,34.33
2023-02-16T19:21:21.469Z,32.92
2023-02-16T19:22:48.708Z,38.58
2023-02-16T19:24:12.991Z,41.58
2023-02-16T19:25:36.779Z,39.33
2023-02-16T19:27:01.893Z,32.05
2023-02-16T19:28:23.396Z,62.33
2023-02-16T19:29:47.572Z,39.78
2023-02-16T19:31:18.808Z,34.13
2023-02-16T19:32:43.193Z,30.20
2023-02-16T19:34:04.963Z,28.95
2023-02-16T19:35:29.206Z,30.25
2023-02-16T19:36:51.370Z,28.67
2023-02-16T19:38:12.748Z,30.40
2023-02-16T19:39:35.374Z,28.98
2023-02-16T19:41:01.792Z,26.05
2023-02-16T19:42:26.713Z,29.58
2023-02-16T19:43:48.756Z,25.58
2023-02-16T19:45:10.467Z,26.42
2023-02-16T19:46:33.102Z,27.83
2023-02-16T19:47:55.319Z,24.60
2023-02-16T19:49:17.344Z,26.63
2023-02-16T19:50:39.301Z,28.70
2023-02-16T19:52:04.410Z,27.83
2023-02-16T19:53:25.869Z,29.48
2023-02-16T19:54:51.784Z,31.15
2023-02-16T19:56:18.324Z,26.35
2023-02-16T19:57:39.818Z,28.70
2023-02-16T19:59:04.055Z,30.27
2023-02-16T20:00:26.004Z,31.00
2023-02-16T20:01:48.088Z,26.90
2023-02-16T20:03:09.964Z,25.17
2023-02-16T20:04:31.662Z,26.20
2023-02-16T20:05:53.308Z,26.42
2023-02-16T20:07:15.001Z,23.92
2023-02-16T20:08:36.938Z,23.70
2023-02-16T20:09:58.396Z,25.63
2023-02-16T20:11:21.327Z,27.45
2023-02-16T20:12:46.887Z,22.17
2023-02-16T20:14:08.943Z,25.23
2023-02-16T20:15:30.641Z,24.75
2023-02-16T20:17:08.257Z,22.15
2023-02-16T20:18:46.280Z,27.77
2023-02-16T20:20:18.451Z,21.40
2023-02-16T20:21:51.192Z,21.73
2023-02-16T20:23:34.092Z,21.17
2023-02-16T20:24:55.901Z,19.77
2023-02-16T20:26:24.469Z,18.90
2023-02-16T20:27:46.392Z,20.27
2023-02-16T20:29:10.905Z,19.38
2023-02-16T20:30:32.998Z,19.25
2023-02-16T20:31:56.105Z,20.60
2023-02-16T20:33:19.680Z,17.90
2023-02-16T20:34:44.379Z,19.33
2023-02-16T20:36:06.212Z,19.10
2023-02-16T20:37:28.267Z,20.17
2023-02-16T20:38:55.721Z,17.30
2023-02-16T20:40:22.805Z,16.70
2023-02-16T20:41:45.121Z,20.17
2023-02-16T20:43:18.388Z,17.33
2023-02-16T20:44:49.661Z,15.45
2023-02-16T20:46:14.023Z,17.55
2023-02-16T20:47:41.490Z,14.52
2023-02-16T20:49:05.581Z,15.77
2023-02-16T20:50:30.683Z,16.33
2023-02-16T20:51:57.791Z,16.05
2023-02-16T20:53:21.980Z,15.73
2023-02-16T20:54:45.649Z,16.67
2023-02-16T20:56:16.787Z,13.80
2023-02-16T20:57:42.556Z,13.80
2023-02-16T20:59:14.859Z,15.63
2023-02-16T21:00:40.200Z,7.45
2023-02-16T21:02:05.049Z,10.88
2023-02-16T21:07:18.474Z,15.55
2023-02-16T21:14:00.473Z,16.77
2023-02-16T21:25:17.115Z,29.63
2023-02-16T22:07:49.027Z,12.30
2023-02-16T22:40:47.517Z,8.52
2023-02-16T22:48:04.073Z,12.48
2023-02-16T22:50:38.864Z,10.95
2023-02-16T22:55:14.071Z,11.88
2023-02-16T22:59:13.584Z,9.40
2023-02-16T23:03:10.967Z,12.60
2023-02-16T23:05:12.461Z,11.70
2023-02-16T23:09:51.848Z,12.00
2023-02-16T23:12:34.012Z,29.33
2023-02-16T23:14:47.172Z,15.05
2023-02-16T23:21:20.801Z,17.85
